Flight Track Log - Related Links

Times and Time Zones

All times are in EDT time to prevent confusion due to time zone crossing. See the TAM3343 flight status page for this flight to view local times or setup timezone preferences in your user account.

Time Position Orientation Groundspeed Altitude Reporting Facility
EDT Latitude Longitude Course Direction KTS MPH feet Rate Location/Type
Sat 11:40:00 AM -20.6986 -44.6545 211° Southwest  Level Estimated
Sat 11:41:00 AM -20.7545 -44.6909 211° Southwest  Level Estimated
Sat 11:42:00 AM -20.8105 -44.7272 211° Southwest  Level Estimated
Sat 11:43:00 AM -20.8664 -44.7636 211° Southwest  Level Estimated
Sat 11:44:00 AM -20.9288 -44.8042 211° Southwest  Level Estimated
Sat 11:45:00 AM -20.9912 -44.8449 211° Southwest  Level Estimated
Sat 11:46:00 AM -21.0535 -44.8856 211° Southwest  Level Estimated
Sat 11:47:00 AM -21.1159 -44.9263 211° Southwest  Level Estimated
Sat 11:48:00 AM -21.1782 -44.9670 211° Southwest  Level Estimated
Sat 11:49:00 AM -21.2405 -45.0078 211° Southwest  Level Estimated
Sat 11:50:00 AM -21.3028 -45.0486 211° Southwest  Level Estimated
Sat 11:51:00 AM -21.3651 -45.0895 211° Southwest  Level Estimated
Sat 11:52:00 AM -21.4274 -45.1304 211° Southwest  Level Estimated
Sat 11:53:00 AM -21.4897 -45.1713 211° Southwest  Level Estimated
Sat 11:54:00 AM -21.5520 -45.2123 211° Southwest  Level Estimated
Sat 11:55:00 AM -21.6142 -45.2533 211° Southwest  Level Estimated
Sat 11:56:00 AM -21.6765 -45.2943 211° Southwest  Level Estimated
Sat 11:57:00 AM -21.7387 -45.3353 212° Southwest  Level Estimated
Sat 11:58:00 AM -21.8009 -45.3764 212° Southwest  Level Estimated
Sat 11:59:00 AM -21.8631 -45.4176 212° Southwest  Level Estimated
Sat 12:00:00 PM -21.9254 -45.4588 212° Southwest  Level Estimated
Sat 12:01:00 PM -21.9876 -45.5000 212° Southwest  Level Estimated
Sat 12:02:00 PM -22.0497 -45.5412 212° Southwest  Level Estimated
Sat 12:03:00 PM -22.1119 -45.5825 212° Southwest  Level Estimated
Sat 12:04:00 PM -22.1741 -45.6238 212° Southwest  Level Estimated
Sat 12:05:00 PM -22.2362 -45.6651 212° Southwest  Level Estimated
Sat 12:06:00 PM -22.2984 -45.7065 212° Southwest  Level Estimated
Sat 12:07:00 PM -22.3605 -45.7480 212° Southwest  Level Estimated
Sat 12:08:00 PM -22.4226 -45.7894 212° Southwest  Level Estimated
Sat 12:09:00 PM -22.4847 -45.8309 212° Southwest  Level Estimated
Sat 12:10:00 PM -22.5468 -45.8725 212° Southwest  Level Estimated
Sat 12:11:00 PM -22.6089 -45.9140 212° Southwest  Level Estimated
Sat 12:12:00 PM -22.6710 -45.9557 212° Southwest  Level Estimated
Sat 12:13:00 PM -22.7331 -45.9973 212° Southwest  Level Estimated
Sat 12:14:00 PM -22.7951 -46.0390 212° Southwest  Level Estimated
Sat 12:15:00 PM -22.8572 -46.0807 212° Southwest  Level Estimated
Sat 12:16:00 PM -22.9192 -46.1225 212° Southwest  Level Estimated
Sat 12:17:00 PM -22.9812 -46.1643 212° Southwest  Level Estimated
Sat 12:18:00 PM -23.0432 -46.2061 212° Southwest  Level Estimated
Sat 12:19:00 PM -23.1052 -46.2480 212° Southwest  Level Estimated
Sat 12:20:00 PM -23.1672 -46.2899 212° Southwest  Level Estimated
Sat 12:21:00 PM -23.2292 -46.3319 212° Southwest  Level Estimated
Sat 12:22:00 PM -23.2912 -46.3739 212° Southwest  Level Estimated
Sat 12:23:00 PM -23.3531 -46.4159 212° Southwest  Level Estimated
Sat 12:24:00 PM -23.4151 -46.4580 212° Southwest  Level Estimated
Sat 12:25:00 PM -23.4321 -46.4695 212° Southwest  Level Estimated
Sat 12:26:00 PM -23.4321 -46.4695 350° North  Level Estimated
Sat 12:27:00 PM -23.4321 -46.4695 350° North  Level Estimated
Sat 12:28:00 PM -23.4321 -46.4695 350° North  Level Estimated
Sat 12:29:00 PM -23.4321 -46.4695 350° North  Level Estimated
Sat 12:30:00 PM -23.4321 -46.4695 350° North  Level Estimated
Sat 12:31:00 PM -23.4321 -46.4695 350° North  Level Estimated
Sat 12:32:00 PM -23.4321 -46.4695 350° North  Level Estimated
Sat 12:33:00 PM -23.4321 -46.4695 350° North  Level Estimated
Sat 12:34:00 PM -23.4321 -46.4695 350° North  Level Estimated
Sat 12:35:00 PM -23.4321 -46.4695 350° North  Level Estimated
Sat 12:36:00 PM -23.4321 -46.4695 350° North  Level Estimated
Sat 12:37:00 PM -23.4321 -46.4695 350° North  Level Estimated
Sat 12:38:00 PM -23.4321 -46.4695 350° North  Level Estimated

Login

Don't have an account? Register now (free) for customized features, flight alerts, and more!